Time;durP1;ratioP1;P1;durP2;ratioP2;P2;SDS_P1;SDS_P2;PMS_P1;PMS_P2;Temp;Humidity;BMP_temperature;BMP_pressure;BME280_temperature;BME280_humidity;BME280_pressure;Samples;Min_cycle;Max_cycle;Signal;HPM_P1;HPM_P2
2022/03/29 00:01:23;;;;;;;7.40;3.00;;;10.70;71.60;;;;;;6324972;22;20037;-87
2022/03/29 00:03:49;;;;;;;6.15;3.30;;;10.70;71.70;;;;;;6325138;22;20440;-87
2022/03/29 00:06:15;;;;;;;9.80;3.30;;;10.70;71.70;;;;;;6325589;22;20025;-88
2022/03/29 00:08:43;;;;;;;7.40;3.08;;;10.70;71.90;;;;;;6296817;22;20007;-87
2022/03/29 00:11:09;;;;;;;8.63;3.72;;;10.70;71.90;;;;;;6297711;22;20065;-87
2022/03/29 00:13:35;;;;;;;10.32;3.40;;;10.80;72.00;;;;;;6324511;22;20000;-87
2022/03/29 00:16:04;;;;;;;6.68;2.92;;;10.60;71.90;;;;;;6325052;22;19995;-87
2022/03/29 00:18:30;;;;;;;7.50;3.35;;;10.60;71.80;;;;;;6324032;22;20006;-87
2022/03/29 00:20:56;;;;;;;6.97;3.00;;;10.60;72.00;;;;;;6296949;22;20003;-87
2022/03/29 00:23:22;;;;;;;11.60;3.08;;;10.60;72.30;;;;;;6296750;22;20003;-87
2022/03/29 00:25:48;;;;;;;7.07;3.00;;;10.60;72.10;;;;;;6295596;22;20003;-87
2022/03/29 00:28:17;;;;;;;7.53;3.28;;;10.60;72.00;;;;;;6297300;22;20009;-87
2022/03/29 00:30:45;;;;;;;7.40;3.50;;;10.60;71.80;;;;;;6296809;22;20008;-87
2022/03/29 00:33:12;;;;;;;7.82;3.25;;;10.60;71.80;;;;;;6296341;22;20074;-87
2022/03/29 00:35:41;;;;;;;7.50;2.75;;;10.60;71.70;;;;;;6295046;22;20010;-87
2022/03/29 00:38:09;;;;;;;7.47;3.05;;;10.60;71.50;;;;;;6295865;22;20003;-87
2022/03/29 00:40:35;;;;;;;6.60;2.90;;;10.60;71.40;;;;;;6323246;22;20074;-87
2022/03/29 00:43:01;;;;;;;6.97;2.80;;;10.80;71.50;;;;;;6295608;22;20018;-87
2022/03/29 00:45:26;;;;;;;9.05;3.42;;;10.60;71.00;;;;;;6321680;22;20018;-87
2022/03/29 00:47:52;;;;;;;9.00;3.55;;;10.60;71.70;;;;;;6321154;22;20449;-87
2022/03/29 00:50:32;;;;;;;10.05;3.38;;;10.90;72.00;;;;;;6294460;22;19999;-87
2022/03/29 00:52:58;;;;;;;7.20;2.95;;;10.60;71.60;;;;;;6321307;22;20021;-86
2022/03/29 00:55:26;;;;;;;4.80;2.45;;;10.60;71.40;;;;;;6293452;22;20052;-86
2022/03/29 00:57:54;;;;;;;5.78;2.42;;;10.50;71.70;;;;;;6292898;22;20003;-88
2022/03/29 01:00:20;;;;;;;5.38;2.60;;;10.50;72.10;;;;;;6294368;22;20038;-87
2022/03/29 01:02:46;;;;;;;6.93;2.78;;;10.50;72.10;;;;;;6294415;22;20003;-87
2022/03/29 01:05:17;;;;;;;6.55;2.75;;;10.70;72.60;;;;;;6295190;22;20437;-87
2022/03/29 01:07:45;;;;;;;6.32;2.72;;;10.50;72.50;;;;;;6297659;22;20031;-87
2022/03/29 01:10:16;;;;;;;5.60;2.75;;;10.50;72.50;;;;;;6321393;22;20070;-88
2022/03/29 01:12:42;;;;;;;8.98;4.25;;;10.40;72.60;;;;;;6294293;22;19999;-87
2022/03/29 01:15:10;;;;;;;10.88;3.47;;;10.50;72.70;;;;;;6294027;22;20003;-87
2022/03/29 01:17:39;;;;;;;7.53;3.22;;;10.40;72.80;;;;;;6295628;22;20045;-86
2022/03/29 01:20:11;;;;;;;8.85;2.92;;;10.40;73.00;;;;;;6296241;22;20003;-87
2022/03/29 01:22:45;;;;;;;6.05;2.78;;;10.40;73.30;;;;;;6295343;22;20011;-88
2022/03/29 01:25:21;;;;;;;5.53;3.17;;;10.40;73.40;;;;;;6321320;22;20000;-87
2022/03/29 01:27:48;;;;;;;8.70;3.00;;;10.30;73.20;;;;;;6294780;22;20003;-87
2022/03/29 01:30:15;;;;;;;7.72;3.05;;;10.40;73.10;;;;;;6295882;22;20038;-87
2022/03/29 01:32:44;;;;;;;7.88;3.50;;;10.20;73.30;;;;;;6299191;22;20007;-89
2022/03/29 01:35:12;;;;;;;8.57;3.10;;;10.20;73.60;;;;;;6299006;22;20026;-89
2022/03/29 01:37:39;;;;;;;8.98;3.83;;;10.20;73.90;;;;;;6299181;22;20046;-89
2022/03/29 01:40:16;;;;;;;9.85;3.20;;;10.10;74.10;;;;;;6299804;22;19991;-88
2022/03/29 01:42:56;;;;;;;9.50;2.83;;;10.10;74.30;;;;;;6299771;22;20108;-88
2022/03/29 01:45:25;;;;;;;5.93;2.97;;;10.10;74.30;;;;;;6298903;22;20101;-89
2022/03/29 01:47:53;;;;;;;6.68;2.80;;;10.10;74.30;;;;;;6297592;22;20007;-89
2022/03/29 01:50:19;;;;;;;9.45;3.08;;;10.30;74.40;;;;;;6297137;22;20002;-89
2022/03/29 01:52:50;;;;;;;6.45;2.65;;;10.00;74.30;;;;;;6326480;22;19995;-87
2022/03/29 01:55:19;;;;;;;8.30;2.65;;;9.90;74.70;;;;;;6298896;22;19999;-89
2022/03/29 01:57:49;;;;;;;7.63;3.75;;;10.10;75.30;;;;;;6298307;22;20026;-88
2022/03/29 02:00:31;;;;;;;7.55;3.10;;;9.80;75.10;;;;;;6325409;22;20061;-88
2022/03/29 02:02:59;;;;;;;8.03;3.03;;;9.80;75.80;;;;;;6325235;22;20031;-89
2022/03/29 02:05:25;;;;;;;9.50;3.70;;;9.60;77.00;;;;;;6294343;22;20014;-90
2022/03/29 02:07:56;;;;;;;9.13;3.42;;;9.60;76.60;;;;;;6315208;22;20026;-89
2022/03/29 02:10:24;;;;;;;5.72;3.00;;;10.00;76.80;;;;;;6292760;22;20387;-89
2022/03/29 02:12:55;;;;;;;9.73;3.13;;;9.50;77.00;;;;;;6295821;22;20026;-88
2022/03/29 02:15:21;;;;;;;6.55;2.85;;;9.40;76.80;;;;;;6297883;22;20041;-89
2022/03/29 02:17:50;;;;;;;6.22;3.38;;;9.70;76.70;;;;;;6297206;22;20003;-88
2022/03/29 02:20:21;;;;;;;6.00;2.80;;;9.70;76.60;;;;;;6298661;22;20003;-88
2022/03/29 02:22:47;;;;;;;7.57;3.55;;;9.40;76.40;;;;;;6294957;22;20014;-89
2022/03/29 02:25:13;;;;;;;8.07;2.90;;;9.50;76.20;;;;;;6282459;22;20035;-89
2022/03/29 02:27:41;;;;;;;9.55;3.22;;;9.50;76.00;;;;;;6305527;22;20003;-89
2022/03/29 02:30:12;;;;;;;6.68;3.30;;;9.70;75.90;;;;;;6287658;22;19995;-89
2022/03/29 02:32:41;;;;;;;7.60;3.17;;;9.50;75.60;;;;;;6293193;22;19999;-89
2022/03/29 02:35:08;;;;;;;7.82;3.03;;;10.40;76.20;;;;;;6283464;22;20050;-88
2022/03/29 02:37:37;;;;;;;7.95;3.42;;;9.50;75.40;;;;;;6285805;22;20406;-88
2022/03/29 02:40:03;;;;;;;9.32;3.75;;;9.50;75.40;;;;;;6283225;22;20441;-88
2022/03/29 02:42:32;;;;;;;6.72;2.65;;;9.50;75.30;;;;;;6312821;22;20002;-89
2022/03/29 02:44:58;;;;;;;10.13;3.65;;;9.60;75.50;;;;;;6325952;22;19992;-89
2022/03/29 02:47:24;;;;;;;7.18;3.45;;;9.50;75.20;;;;;;6326272;22;20023;-89
2022/03/29 02:49:50;;;;;;;6.72;3.08;;;9.50;75.50;;;;;;6296583;22;20052;-87
2022/03/29 02:52:15;;;;;;;6.93;3.13;;;9.50;75.20;;;;;;6314143;22;19999;-85
2022/03/29 02:54:41;;;;;;;8.32;3.50;;;10.00;75.60;;;;;;6313473;22;20003;-86
2022/03/29 02:57:07;;;;;;;8.32;3.78;;;9.30;75.40;;;;;;6314554;22;20049;-86
2022/03/29 02:59:33;;;;;;;7.35;2.97;;;9.50;75.50;;;;;;6332643;22;20082;-86
2022/03/29 03:01:59;;;;;;;8.00;3.28;;;9.40;75.80;;;;;;6283126;22;20004;-86
2022/03/29 03:04:24;;;;;;;5.47;2.97;;;9.40;76.40;;;;;;6311609;22;20053;-86
2022/03/29 03:06:50;;;;;;;7.03;3.33;;;9.40;75.80;;;;;;6284610;22;20007;-85
2022/03/29 03:09:15;;;;;;;8.77;3.88;;;9.40;76.10;;;;;;6282464;22;20008;-86
2022/03/29 03:11:41;;;;;;;5.85;3.45;;;9.40;76.20;;;;;;6282406;22;20010;-85
2022/03/29 03:14:06;;;;;;;7.32;3.13;;;9.40;76.50;;;;;;6281606;22;20018;-86
2022/03/29 03:16:32;;;;;;;8.90;3.35;;;9.40;76.10;;;;;;6282293;22;20045;-87
2022/03/29 03:18:58;;;;;;;5.85;2.95;;;9.30;76.40;;;;;;6282362;22;20007;-87
2022/03/29 03:21:23;;;;;;;7.40;3.25;;;9.30;76.10;;;;;;6310590;22;19999;-86
2022/03/29 03:23:49;;;;;;;6.38;2.92;;;9.40;76.40;;;;;;6283255;22;20058;-87
2022/03/29 03:26:15;;;;;;;7.03;3.15;;;9.30;76.60;;;;;;6282291;22;20039;-86
2022/03/29 03:28:41;;;;;;;10.65;3.85;;;9.70;76.80;;;;;;6310082;22;20397;-86
2022/03/29 03:31:06;;;;;;;8.45;3.65;;;9.70;76.70;;;;;;6282987;22;20003;-86
2022/03/29 03:33:32;;;;;;;6.70;3.25;;;9.40;76.80;;;;;;6313425;22;20002;-86
2022/03/29 03:35:58;;;;;;;6.68;3.28;;;9.10;76.70;;;;;;6301679;22;20007;-86
2022/03/29 03:38:23;;;;;;;8.65;3.40;;;9.20;76.60;;;;;;6321091;22;20052;-87
2022/03/29 03:40:49;;;;;;;8.98;3.55;;;10.80;77.90;;;;;;6286384;22;20168;-86
2022/03/29 03:43:15;;;;;;;7.15;3.53;;;9.30;76.80;;;;;;6314876;22;20003;-86
2022/03/29 03:45:40;;;;;;;6.22;2.53;;;9.10;76.80;;;;;;6285819;22;20042;-85
2022/03/29 03:48:06;;;;;;;9.80;4.00;;;10.00;77.30;;;;;;6284654;22;20108;-86
2022/03/29 03:50:33;;;;;;;7.93;3.15;;;9.30;77.20;;;;;;6311550;22;20010;-86
2022/03/29 03:53:00;;;;;;;9.57;3.72;;;9.20;77.00;;;;;;6283666;22;20007;-86
2022/03/29 03:55:26;;;;;;;7.35;3.50;;;9.40;77.30;;;;;;6282637;22;19999;-86
2022/03/29 03:57:53;;;;;;;7.70;3.13;;;9.20;77.10;;;;;;6282612;22;20090;-86
2022/03/29 04:00:21;;;;;;;9.25;3.50;;;9.20;77.10;;;;;;6282539;22;20039;-85
2022/03/29 04:02:49;;;;;;;7.32;3.20;;;9.20;77.30;;;;;;6311262;22;20122;-85
2022/03/29 04:05:15;;;;;;;7.80;3.47;;;9.20;77.20;;;;;;6283767;22;20065;-85
2022/03/29 04:07:41;;;;;;;8.40;3.67;;;9.10;76.90;;;;;;6310975;22;20376;-85
2022/03/29 04:10:07;;;;;;;8.95;3.30;;;9.10;76.40;;;;;;6312902;22;20074;-86
2022/03/29 04:12:34;;;;;;;7.38;3.67;;;9.00;76.70;;;;;;6286907;22;20042;-85
2022/03/29 04:14:59;;;;;;;6.68;2.83;;;9.00;77.00;;;;;;6284163;22;20026;-86
2022/03/29 04:17:25;;;;;;;7.82;3.08;;;8.90;77.00;;;;;;6282715;22;19999;-85
2022/03/29 04:19:51;;;;;;;6.78;3.03;;;8.90;76.60;;;;;;6284632;22;20086;-85
2022/03/29 04:22:19;;;;;;;6.35;2.65;;;8.90;76.70;;;;;;6284336;22;19999;-85
2022/03/29 04:24:45;;;;;;;8.05;3.28;;;8.70;77.00;;;;;;6312474;22;20406;-85
2022/03/29 04:27:11;;;;;;;6.22;3.05;;;8.90;76.80;;;;;;6310806;22;20054;-86
2022/03/29 04:29:36;;;;;;;8.35;3.20;;;9.10;77.50;;;;;;6284767;22;20057;-86
2022/03/29 04:32:02;;;;;;;10.60;2.80;;;8.90;77.10;;;;;;6284293;22;20003;-86
2022/03/29 04:34:28;;;;;;;7.30;3.13;;;8.90;77.20;;;;;;6309200;22;20002;-85
2022/03/29 04:36:54;;;;;;;11.20;3.00;;;8.90;76.50;;;;;;6307989;22;19996;-85
2022/03/29 04:39:19;;;;;;;8.32;2.95;;;9.00;76.80;;;;;;6278632;22;20019;-86
2022/03/29 04:41:45;;;;;;;6.93;3.17;;;9.10;77.00;;;;;;6280189;22;20073;-85
2022/03/29 04:44:11;;;;;;;8.02;3.35;;;9.20;77.50;;;;;;6281601;22;20314;-86
2022/03/29 04:46:37;;;;;;;6.60;2.95;;;9.00;77.60;;;;;;6311841;22;20364;-86
2022/03/29 04:49:03;;;;;;;6.85;2.85;;;9.10;77.90;;;;;;6279725;22;20010;-86
2022/03/29 04:51:29;;;;;;;8.80;3.13;;;9.00;78.10;;;;;;6280153;22;20007;-86
2022/03/29 04:53:55;;;;;;;6.70;3.05;;;9.00;78.70;;;;;;6279926;22;20011;-86
2022/03/29 04:56:21;;;;;;;9.27;3.50;;;9.10;79.40;;;;;;6280027;22;20003;-86
2022/03/29 04:58:46;;;;;;;6.40;2.72;;;9.30;79.10;;;;;;6279986;22;20148;-86
2022/03/29 05:01:14;;;;;;;6.63;2.95;;;8.90;78.80;;;;;;6308069;22;20102;-87
2022/03/29 05:03:40;;;;;;;7.10;3.17;;;8.90;79.10;;;;;;6278877;22;20007;-86
2022/03/29 05:06:06;;;;;;;8.45;3.20;;;9.00;78.50;;;;;;6278216;22;20011;-86
2022/03/29 05:08:32;;;;;;;7.97;3.40;;;8.90;78.50;;;;;;6278529;22;20010;-85
2022/03/29 05:10:57;;;;;;;7.68;3.40;;;8.90;78.40;;;;;;6278446;22;20003;-86
2022/03/29 05:13:23;;;;;;;6.28;3.50;;;8.80;78.40;;;;;;6305813;22;20064;-85
2022/03/29 05:15:49;;;;;;;9.05;3.33;;;8.70;78.50;;;;;;6304656;22;20000;-84
2022/03/29 05:18:14;;;;;;;7.60;3.47;;;8.60;78.90;;;;;;6304640;22;20380;-84
2022/03/29 05:20:40;;;;;;;7.15;3.20;;;8.50;79.40;;;;;;6278586;22;20015;-85
2022/03/29 05:23:07;;;;;;;10.23;3.40;;;8.60;79.90;;;;;;6300046;22;20044;-85
2022/03/29 05:25:33;;;;;;;7.70;3.38;;;8.60;79.90;;;;;;6277548;22;20087;-84
2022/03/29 05:27:59;;;;;;;9.25;3.33;;;8.80;79.90;;;;;;6272612;22;20010;-85
2022/03/29 05:30:25;;;;;;;7.38;3.20;;;8.50;80.20;;;;;;6277645;22;20008;-83
2022/03/29 05:32:57;;;;;;;8.15;3.10;;;8.40;80.80;;;;;;6278533;22;20025;-85
2022/03/29 05:35:25;;;;;;;5.25;2.78;;;8.30;80.50;;;;;;6277201;22;20004;-85
2022/03/29 05:37:51;;;;;;;8.60;3.63;;;8.40;80.90;;;;;;6278193;22;20094;-87
2022/03/29 05:40:17;;;;;;;8.85;3.17;;;8.40;80.80;;;;;;6277987;22;20034;-85
2022/03/29 05:42:44;;;;;;;8.63;3.72;;;8.50;81.10;;;;;;6276984;22;20003;-85
2022/03/29 05:45:11;;;;;;;10.50;2.97;;;8.60;80.80;;;;;;6304020;22;20003;-85
2022/03/29 05:50:21;;;;;;;6.03;2.70;;;8.60;80.70;;;;;;6304504;22;20092;-85
2022/03/29 05:52:47;;;;;;;7.95;3.15;;;8.70;80.60;;;;;;6277108;22;20003;-85
2022/03/29 05:55:13;;;;;;;6.78;2.90;;;8.70;80.70;;;;;;6277726;22;20086;-84
2022/03/29 05:57:39;;;;;;;8.80;3.60;;;8.80;81.40;;;;;;6305137;22;20026;-85
2022/03/29 06:00:08;;;;;;;9.85;3.45;;;8.80;81.40;;;;;;6305278;22;19999;-85
2022/03/29 06:02:34;;;;;;;8.70;3.30;;;8.80;81.10;;;;;;6304478;22;19995;-85
2022/03/29 06:05:00;;;;;;;14.68;3.13;;;8.90;80.70;;;;;;6304547;22;20014;-85
2022/03/29 06:07:29;;;;;;;10.73;3.30;;;8.90;80.70;;;;;;6276522;22;20003;-84
2022/03/29 06:09:55;;;;;;;8.43;3.65;;;8.90;80.30;;;;;;6277373;22;20003;-86
2022/03/29 06:12:22;;;;;;;7.40;3.45;;;8.90;80.50;;;;;;6305944;22;19996;-85
2022/03/29 06:14:51;;;;;;;9.38;3.33;;;9.00;81.10;;;;;;6277776;22;20013;-86
2022/03/29 06:17:17;;;;;;;7.55;3.60;;;8.90;80.80;;;;;;6278238;22;20089;-85
2022/03/29 06:19:45;;;;;;;8.20;3.50;;;9.00;80.50;;;;;;6277443;22;20014;-85
2022/03/29 06:22:11;;;;;;;11.23;3.30;;;9.10;80.20;;;;;;6277840;22;20410;-84
2022/03/29 06:24:42;;;;;;;8.23;3.35;;;9.20;79.80;;;;;;6276839;22;20061;-85
2022/03/29 06:27:11;;;;;;;11.32;3.60;;;9.20;79.80;;;;;;6277818;22;19999;-85
2022/03/29 06:29:39;;;;;;;7.90;3.50;;;9.40;79.90;;;;;;6303871;22;20017;-85
2022/03/29 06:32:08;;;;;;;10.00;4.07;;;9.50;79.80;;;;;;6277129;22;20027;-86
2022/03/29 06:34:59;;;;;;;7.82;3.40;;;9.50;79.20;;;;;;6304600;22;20539;-86
2022/03/29 06:37:27;;;;;;;9.93;3.58;;;9.80;78.90;;;;;;6278430;22;20061;-85
2022/03/29 06:39:53;;;;;;;10.13;4.55;;;9.80;78.40;;;;;;6304790;22;20010;-85
2022/03/29 06:42:22;;;;;;;7.20;3.50;;;9.80;78.20;;;;;;6277125;22;20662;-84
2022/03/29 06:44:50;;;;;;;7.32;3.47;;;9.90;77.80;;;;;;6275752;22;20439;-85
2022/03/29 06:47:16;;;;;;;6.90;3.42;;;10.00;77.50;;;;;;6277592;22;20341;-85
2022/03/29 06:49:44;;;;;;;9.25;3.55;;;10.10;77.40;;;;;;6304208;22;20013;-84
2022/03/29 06:52:15;;;;;;;9.52;3.85;;;10.50;77.70;;;;;;6277718;22;19999;-85
2022/03/29 06:54:43;;;;;;;9.50;3.67;;;10.40;77.60;;;;;;6277016;22;20074;-85
2022/03/29 06:57:09;;;;;;;6.43;3.33;;;10.40;79.30;;;;;;6277182;22;20007;-86
2022/03/29 06:59:40;;;;;;;9.02;3.80;;;11.00;80.90;;;;;;6277369;22;20011;-86
2022/03/29 07:02:11;;;;;;;7.88;3.47;;;10.70;80.40;;;;;;6304693;22;20064;-86
2022/03/29 07:04:37;;;;;;;8.13;3.53;;;11.00;79.60;;;;;;6304785;22;20053;-85
2022/03/29 07:07:21;;;;;;;7.00;3.28;;;10.70;79.10;;;;;;6277332;22;20008;-86
2022/03/29 07:12:53;;;;;;;7.93;3.10;;;11.00;78.30;;;;;;6305188;22;20042;-84
2022/03/29 07:15:39;;;;;;;8.85;3.92;;;10.90;76.60;;;;;;6277066;22;20041;-85
2022/03/29 07:18:34;;;;;;;11.05;4.10;;;11.00;74.90;;;;;;6276932;22;20041;-86
2022/03/29 07:21:10;;;;;;;8.43;4.18;;;11.00;74.80;;;;;;6277009;22;20679;-86
2022/03/29 07:23:47;;;;;;;10.40;3.70;;;11.10;75.10;;;;;;6276820;22;20566;-86
2022/03/29 07:26:19;;;;;;;11.88;3.95;;;11.20;75.70;;;;;;6305060;22;20010;-86
2022/03/29 07:28:57;;;;;;;9.07;3.78;;;11.60;75.70;;;;;;6277371;22;20007;-86
2022/03/29 07:31:43;;;;;;;8.77;3.92;;;11.40;76.00;;;;;;6276385;22;20027;-85
2022/03/29 07:34:22;;;;;;;8.48;3.60;;;11.60;75.50;;;;;;6277226;22;20005;-86
2022/03/29 07:37:12;;;;;;;;;;;;;;;;;;;;;
2022/03/29 07:40:01;;;;;;;7.85;3.50;;;11.60;73.80;;;;;;6303795;22;20496;-86
2022/03/29 07:42:37;;;;;;;6.40;3.25;;;11.70;73.60;;;;;;6276336;22;20042;-86
2022/03/29 07:45:16;;;;;;;9.35;3.53;;;12.10;73.50;;;;;;6277389;22;20073;-86
2022/03/29 07:48:28;;;;;;;9.63;4.25;;;11.90;73.60;;;;;;6278587;22;20034;-86
2022/03/29 07:51:36;;;;;;;12.50;4.35;;;11.90;73.80;;;;;;6279252;22;20082;-86
2022/03/29 07:54:03;;;;;;;15.13;4.50;;;11.80;77.70;;;;;;6280220;22;19995;-88
2022/03/29 07:56:29;;;;;;;6.93;3.80;;;11.80;75.00;;;;;;6281413;22;20004;-88
2022/03/29 07:58:57;;;;;;;8.70;4.35;;;11.90;75.10;;;;;;6310791;22;20115;-89
2022/03/29 08:01:31;;;;;;;7.15;3.60;;;12.00;75.10;;;;;;6281776;22;20453;-89
2022/03/29 08:04:02;;;;;;;8.65;4.03;;;11.70;73.50;;;;;;6308319;22;20011;-89
2022/03/29 08:06:27;;;;;;;8.50;4.00;;;11.80;74.40;;;;;;6281853;22;20011;-87
2022/03/29 08:09:06;;;;;;;9.98;4.05;;;11.90;76.50;;;;;;6280690;22;20355;-89
2022/03/29 08:11:40;;;;;;;10.75;3.85;;;11.90;76.30;;;;;;6281363;22;20004;-89
2022/03/29 08:14:08;;;;;;;8.60;4.10;;;11.90;77.80;;;;;;6281675;22;20057;-89
2022/03/29 08:16:37;;;;;;;10.52;4.20;;;11.80;78.30;;;;;;6280820;22;20433;-89
2022/03/29 08:19:15;;;;;;;8.38;3.78;;;11.70;78.80;;;;;;6281765;22;20007;-89
2022/03/29 08:21:50;;;;;;;9.88;3.95;;;12.00;78.20;;;;;;6310134;22;20003;-88
2022/03/29 08:24:25;;;;;;;8.93;4.18;;;12.40;77.60;;;;;;6282719;22;20011;-89
2022/03/29 08:26:54;;;;;;;8.90;4.45;;;11.90;77.10;;;;;;6309231;22;20043;-88
2022/03/29 08:29:21;;;;;;;11.75;4.60;;;12.00;76.30;;;;;;6282910;22;20011;-88
2022/03/29 08:31:49;;;;;;;9.20;4.15;;;12.00;76.00;;;;;;6310252;22;19995;-88
2022/03/29 08:34:16;;;;;;;11.55;4.55;;;12.00;75.80;;;;;;6284780;22;20097;-88
2022/03/29 08:36:42;;;;;;;8.70;4.03;;;12.00;75.50;;;;;;6283022;22;20500;-87
2022/03/29 08:39:09;;;;;;;10.55;4.72;;;12.00;75.80;;;;;;6294485;22;20070;-88
2022/03/29 08:41:50;;;;;;;10.73;4.20;;;12.00;76.00;;;;;;6329026;22;19983;-89
2022/03/29 08:44:19;;;;;;;8.20;4.85;;;12.40;75.50;;;;;;6331261;22;20003;-89
2022/03/29 08:46:46;;;;;;;8.93;4.63;;;12.60;75.10;;;;;;6327489;22;20003;-89
2022/03/29 08:49:14;;;;;;;8.40;3.97;;;12.40;74.40;;;;;;6295292;22;20086;-88
2022/03/29 08:51:40;;;;;;;9.00;4.20;;;12.60;74.50;;;;;;6282176;22;20642;-88
2022/03/29 08:54:09;;;;;;;10.73;4.78;;;12.50;74.70;;;;;;6310347;22;20453;-87
2022/03/29 08:56:35;;;;;;;8.90;4.00;;;13.00;75.00;;;;;;6307225;22;20003;-88
2022/03/29 08:59:06;;;;;;;9.32;4.57;;;13.20;75.20;;;;;;6307668;22;20077;-88
2022/03/29 09:01:39;;;;;;;11.10;4.73;;;12.90;74.70;;;;;;6282362;22;20049;-89
2022/03/29 09:04:20;;;;;;;9.25;3.90;;;13.30;74.20;;;;;;6279220;22;20014;-88
2022/03/29 09:07:00;;;;;;;11.38;4.10;;;13.90;73.80;;;;;;6279865;22;20057;-89
2022/03/29 09:09:33;;;;;;;7.88;4.00;;;13.80;72.70;;;;;;6281207;22;19999;-88
2022/03/29 09:12:12;;;;;;;7.00;3.47;;;14.70;72.80;;;;;;6280595;22;19999;-88
2022/03/29 09:14:59;;;;;;;11.18;4.25;;;14.40;72.00;;;;;;6281830;22;20007;-87
2022/03/29 09:17:35;;;;;;;12.30;4.40;;;14.50;71.50;;;;;;6281343;22;20026;-87
2022/03/29 09:20:11;;;;;;;8.70;4.30;;;14.90;70.20;;;;;;6307501;22;19995;-88
2022/03/29 09:22:46;;;;;;;10.23;3.97;;;15.00;70.40;;;;;;6279532;22;20226;-88
2022/03/29 09:25:23;;;;;;;8.02;4.45;;;15.00;70.80;;;;;;6279284;22;20468;-88
2022/03/29 09:28:10;;;;;;;8.50;3.97;;;15.00;70.80;;;;;;6307772;22;20429;-88
2022/03/29 09:30:38;;;;;;;13.23;4.32;;;15.00;69.20;;;;;;6280757;22;20006;-88
2022/03/29 09:33:06;;;;;;;9.05;4.40;;;15.10;69.90;;;;;;6307832;22;20004;-88
2022/03/29 09:35:33;;;;;;;8.02;3.72;;;14.90;70.10;;;;;;6278595;22;20074;-88
2022/03/29 09:38:01;;;;;;;10.35;4.35;;;15.10;70.80;;;;;;6306694;22;20003;-88
2022/03/29 09:40:57;;;;;;;8.82;4.82;;;14.90;70.50;;;;;;6307006;22;20235;-88
2022/03/29 09:43:31;;;;;;;7.68;4.18;;;15.20;70.80;;;;;;6260114;22;20014;-89
2022/03/29 09:46:04;;;;;;;8.98;4.38;;;15.20;70.40;;;;;;6308086;22;20019;-87
2022/03/29 09:48:36;;;;;;;7.80;4.20;;;15.40;69.30;;;;;;6281412;22;20038;-88
2022/03/29 09:51:07;;;;;;;9.20;4.47;;;15.60;69.30;;;;;;6281161;22;20003;-89
2022/03/29 09:53:40;;;;;;;8.43;4.30;;;16.00;68.90;;;;;;6305464;22;19999;-88
2022/03/29 09:59:05;;;;;;;11.25;4.15;;;16.10;66.60;;;;;;6307385;22;20003;-89
2022/03/29 10:01:58;;;;;;;;;;;;;;;;;;;;;
2022/03/29 10:04:29;;;;;;;8.88;4.35;;;16.20;65.80;;;;;;6306284;22;20079;-88
2022/03/29 10:07:04;;;;;;;9.38;4.20;;;16.40;66.40;;;;;;6281376;22;20003;-88
2022/03/29 10:09:37;;;;;;;8.63;4.10;;;16.50;65.30;;;;;;6308253;22;20076;-87
2022/03/29 10:12:08;;;;;;;11.45;4.32;;;16.60;64.20;;;;;;6281763;22;20003;-88
2022/03/29 10:14:44;;;;;;;8.80;4.15;;;16.80;65.50;;;;;;6280525;22;20052;-88
2022/03/29 10:17:15;;;;;;;10.50;4.47;;;16.90;65.70;;;;;;6307895;22;20057;-88
2022/03/29 10:19:44;;;;;;;13.02;4.53;;;17.10;65.70;;;;;;6307040;22;19999;-88
2022/03/29 10:22:12;;;;;;;11.23;4.68;;;17.20;65.40;;;;;;6279875;22;20030;-88
2022/03/29 10:24:38;;;;;;;11.45;4.93;;;17.30;66.00;;;;;;6278795;22;20009;-88
2022/03/29 10:27:05;;;;;;;9.50;4.18;;;17.50;65.10;;;;;;6280391;22;20003;-87
2022/03/29 10:29:31;;;;;;;9.07;3.88;;;17.40;65.40;;;;;;6279632;22;20006;-87
2022/03/29 10:32:00;;;;;;;9.70;4.30;;;17.50;65.40;;;;;;6280525;22;20007;-87
2022/03/29 10:41:46;;;;;;;12.20;5.18;;;17.20;65.80;;;;;;6209333;22;20012;-88
2022/03/29 10:45:09;;;;;;;;;;;;;;;;;;;;;
2022/03/29 10:51:59;;;;;;;;;;;;;;;;;;;;;
2022/03/29 11:31:30;;;;;;;;;;;18.20;60.50;;;;;;6210598;23;20044;-91
2022/03/29 11:40:37;;;;;;;9.43;4.30;;;18.30;59.60;;;;;;6202091;23;20016;-91
2022/03/29 11:43:25;;;;;;;10.52;5.00;;;18.10;59.90;;;;;;6198730;23;20105;-91
2022/03/29 11:56:13;;;;;;;8.45;3.97;;;18.60;58.40;;;;;;6195387;23;20011;-91
2022/03/29 12:02:09;;;;;;;10.35;4.20;;;18.70;58.50;;;;;;6369092;22;20018;-90
2022/03/29 12:04:57;;;;;;;;;;;;;;;;;;;;;
2022/03/29 12:13:59;;;;;;;7.60;3.83;;;18.90;58.70;;;;;;6360887;22;20022;-91
2022/03/29 12:22:58;;;;;;;11.65;4.88;;;19.20;57.10;;;;;;6274852;22;19999;-91
2022/03/29 12:35:59;;;;;;;;;;;;;;;;;;;;;
2022/03/29 12:42:24;;;;;;;8.95;4.00;;;19.10;55.90;;;;;;6299198;22;20604;-90
2022/03/29 12:45:28;;;;;;;7.72;4.18;;;19.20;56.30;;;;;;6326824;22;20060;-91
2022/03/29 12:48:44;;;;;;;;;;;;;;;;;;;;;
2022/03/29 12:54:23;;;;;;;9.98;4.75;;;18.90;56.90;;;;;;6368923;22;20026;-90
2022/03/29 12:57:36;;;;;;;8.57;3.58;;;18.80;56.50;;;;;;6356239;22;20013;-92
2022/03/29 13:06:45;;;;;;;7.85;3.75;;;18.70;55.90;;;;;;6383437;22;20032;-90
2022/03/29 13:12:39;;;;;;;7.97;3.40;;;19.00;56.80;;;;;;6377015;22;20174;-91
2022/03/29 13:15:42;;;;;;;9.40;3.17;;;19.00;56.00;;;;;;6328509;22;20009;-90
2022/03/29 13:18:49;;;;;;;7.88;2.80;;;19.10;55.30;;;;;;6355031;22;20093;-91
2022/03/29 13:22:25;;;;;;;7.57;3.33;;;19.20;54.40;;;;;;6332811;22;20010;-90
2022/03/29 13:25:26;;;;;;;7.57;3.17;;;19.30;53.70;;;;;;6326286;22;20026;-90
2022/03/29 13:28:27;;;;;;;5.72;3.08;;;19.60;53.00;;;;;;6353758;22;20013;-90
2022/03/29 13:31:14;;;;;;;8.00;3.20;;;19.50;53.00;;;;;;6321236;22;20089;-90
2022/03/29 13:34:03;;;;;;;5.70;2.80;;;19.40;52.40;;;;;;6302693;22;20010;-91
2022/03/29 13:36:56;;;;;;;6.93;2.47;;;19.40;51.60;;;;;;6306089;22;20022;-90
2022/03/29 13:40:12;;;;;;;5.45;2.50;;;19.10;51.30;;;;;;6322336;22;20006;-90
2022/03/29 13:42:44;;;;;;;5.43;2.58;;;19.00;50.60;;;;;;6291527;22;20010;-89
2022/03/29 13:45:49;;;;;;;;;;;;;;;;;;;;;
2022/03/29 13:48:50;;;;;;;6.03;2.30;;;18.80;51.10;;;;;;6319354;22;20035;-89
2022/03/29 13:51:20;;;;;;;7.97;2.70;;;19.00;51.10;;;;;;6310268;22;20018;-90
2022/03/29 13:53:55;;;;;;;6.95;2.10;;;19.10;50.20;;;;;;6321881;22;20026;-90
2022/03/29 13:56:23;;;;;;;4.55;2.00;;;19.30;50.80;;;;;;6322506;22;20005;-90
2022/03/29 13:59:07;;;;;;;5.97;2.25;;;19.30;49.60;;;;;;6320771;22;20003;-90
2022/03/29 14:01:39;;;;;;;4.45;2.17;;;19.30;49.90;;;;;;6293840;22;20004;-90
2022/03/29 14:04:24;;;;;;;7.47;2.53;;;19.20;49.70;;;;;;6288603;22;20026;-90
2022/03/29 14:06:53;;;;;;;6.85;2.50;;;19.10;49.70;;;;;;6290529;22;20057;-90
2022/03/29 14:09:29;;;;;;;7.20;2.90;;;19.10;50.60;;;;;;6288654;22;20201;-89
2022/03/29 14:12:10;;;;;;;5.18;2.53;;;19.10;49.70;;;;;;6289256;22;19996;-91
2022/03/29 14:14:38;;;;;;;6.70;2.50;;;19.10;50.50;;;;;;6289686;22;20076;-90
2022/03/29 14:17:09;;;;;;;8.85;2.53;;;19.10;49.00;;;;;;6286499;22;20003;-90
2022/03/29 14:20:03;;;;;;;7.03;2.60;;;19.10;49.60;;;;;;6289777;22;20061;-89
2022/03/29 14:22:34;;;;;;;7.32;2.60;;;19.10;48.60;;;;;;6199439;23;20053;-90
2022/03/29 14:28:12;;;;;;;6.45;2.60;;;19.30;48.70;;;;;;6318430;22;20033;-90
2022/03/29 14:30:51;;;;;;;4.60;2.35;;;19.20;49.30;;;;;;6304332;22;20701;-90
2022/03/29 14:33:55;;;;;;;;;;;;;;;;;;;;;
2022/03/29 14:36:43;;;;;;;5.97;2.50;;;19.20;48.20;;;;;;6344851;22;20031;-91
2022/03/29 14:39:18;;;;;;;8.40;1.80;;;19.30;47.80;;;;;;6321069;22;19999;-90
2022/03/29 14:41:49;;;;;;;4.85;1.92;;;19.30;48.50;;;;;;6289155;22;20004;-90
2022/03/29 14:44:39;;;;;;;;;;;;;;;;;;;;;
2022/03/29 14:47:34;;;;;;;;;;;;;;;;;;;;;
2022/03/29 14:50:13;;;;;;;4.65;1.88;;;19.30;48.60;;;;;;6314347;22;20026;-90
2022/03/29 14:53:05;;;;;;;;;;;;;;;;;;;;;
2022/03/29 14:55:40;;;;;;;5.15;2.10;;;19.20;49.20;;;;;;6288448;22;20434;-89
2022/03/29 14:58:12;;;;;;;8.13;2.42;;;19.10;49.30;;;;;;6285849;22;20004;-90
2022/03/29 15:00:41;;;;;;;7.35;2.80;;;19.00;49.10;;;;;;6281988;22;20007;-89
2022/03/29 15:03:29;;;;;;;5.95;2.40;;;18.80;49.10;;;;;;6286176;22;20086;-90
2022/03/29 15:05:55;;;;;;;5.20;2.03;;;18.60;49.50;;;;;;6286299;22;19999;-89
2022/03/29 15:08:29;;;;;;;4.40;1.67;;;18.50;49.70;;;;;;6288947;22;20342;-90
2022/03/29 15:11:15;;;;;;;7.13;2.63;;;18.40;50.50;;;;;;6288977;22;20030;-90
2022/03/29 15:13:51;;;;;;;4.38;1.90;;;18.30;50.60;;;;;;6287931;22;20094;-90
2022/03/29 15:16:39;;;;;;;4.75;2.22;;;18.20;50.10;;;;;;6284826;22;20023;-90
2022/03/29 15:19:10;;;;;;;5.85;2.10;;;18.40;50.50;;;;;;6286490;22;19999;-90
2022/03/29 15:22:03;;;;;;;7.03;2.07;;;18.10;50.70;;;;;;6289353;22;20007;-90
2022/03/29 15:25:57;;;;;;;5.65;3.05;;;17.90;50.40;;;;;;6297333;22;20022;-89
2022/03/29 15:29:31;;;;;;;;;;;;;;;;;;;;;
2022/03/29 15:34:55;;;;;;;7.70;2.50;;;17.40;53.10;;;;;;6229213;23;20013;-89
2022/03/29 15:37:32;;;;;;;6.50;2.20;;;17.20;52.60;;;;;;6251572;22;19990;-89
2022/03/29 15:40:09;;;;;;;7.20;2.22;;;17.20;53.00;;;;;;6350931;22;20003;-89